Time;durP1;ratioP1;P1;durP2;ratioP2;P2;SDS_P1;SDS_P2;PMS_P1;PMS_P2;Temp;Humidity;BMP_temperature;BMP_pressure;BME280_temperature;BME280_humidity;BME280_pressure;Samples;Min_cycle;Max_cycle;Signal;HPM_P1;HPM_P2
2021/11/11 00:02:22;;;;;;;14.97;8.47;;;2.80;99.90;;;;;;5092692;28;20583;-78
2021/11/11 00:04:50;;;;;;;14.93;8.50;;;2.90;99.90;;;;;;5081483;28;20208;-77
2021/11/11 00:07:17;;;;;;;14.37;8.90;;;2.80;99.90;;;;;;5091681;28;20554;-78
2021/11/11 00:09:44;;;;;;;16.30;9.33;;;2.80;99.90;;;;;;5089118;28;20611;-77
2021/11/11 00:12:11;;;;;;;17.00;8.80;;;2.80;99.90;;;;;;5091677;28;20189;-78
2021/11/11 00:14:38;;;;;;;14.57;8.50;;;2.90;99.90;;;;;;5091899;28;20200;-78
2021/11/11 00:17:05;;;;;;;18.10;8.63;;;2.80;99.90;;;;;;5092486;28;20560;-78
2021/11/11 00:19:32;;;;;;;16.23;8.63;;;2.70;99.90;;;;;;5086259;28;20193;-78
2021/11/11 00:22:00;;;;;;;11.57;8.00;;;2.80;99.90;;;;;;5092510;28;20198;-77
2021/11/11 00:24:27;;;;;;;14.70;8.37;;;2.80;99.90;;;;;;5085426;28;20700;-78
2021/11/11 00:26:54;;;;;;;20.40;9.53;;;2.90;99.90;;;;;;5089797;28;20201;-78
2021/11/11 00:29:20;;;;;;;12.67;8.03;;;3.00;99.90;;;;;;5089952;28;20214;-78
2021/11/11 00:31:47;;;;;;;16.80;8.70;;;3.00;99.90;;;;;;5092166;28;20197;-78
2021/11/11 00:34:14;;;;;;;18.20;9.63;;;3.10;99.90;;;;;;5078311;28;20206;-78
2021/11/11 00:36:41;;;;;;;15.57;8.90;;;3.00;99.90;;;;;;5082427;28;20671;-78
2021/11/11 00:39:09;;;;;;;16.37;9.20;;;3.00;99.90;;;;;;5080398;28;20202;-77
2021/11/11 00:41:36;;;;;;;16.10;8.93;;;3.00;99.90;;;;;;5088156;28;20198;-78
2021/11/11 00:44:03;;;;;;;16.50;9.60;;;3.10;99.90;;;;;;5091243;28;20208;-77
2021/11/11 00:46:30;;;;;;;16.47;9.23;;;3.10;99.90;;;;;;5091556;28;20204;-77
2021/11/11 00:48:57;;;;;;;18.93;9.33;;;3.10;99.90;;;;;;5089497;28;20234;-78
2021/11/11 00:51:24;;;;;;;13.63;8.30;;;3.00;99.90;;;;;;5090984;28;20199;-78
2021/11/11 00:53:51;;;;;;;19.57;8.83;;;2.90;99.90;;;;;;5087984;28;20574;-77
2021/11/11 00:56:19;;;;;;;15.23;8.50;;;2.80;99.90;;;;;;5092104;28;20212;-68
2021/11/11 00:58:46;;;;;;;14.60;8.37;;;2.90;99.90;;;;;;5089314;28;20244;-68
2021/11/11 01:01:13;;;;;;;14.20;8.23;;;2.80;99.90;;;;;;5091291;28;20271;-68
2021/11/11 01:03:41;;;;;;;15.43;8.10;;;2.80;99.90;;;;;;5081094;28;20264;-68
2021/11/11 01:06:08;;;;;;;15.70;8.10;;;2.80;99.90;;;;;;5082853;28;20197;-68
2021/11/11 01:08:35;;;;;;;14.70;7.80;;;2.80;99.90;;;;;;5087859;28;20640;-68
2021/11/11 01:11:03;;;;;;;14.80;7.80;;;2.70;99.90;;;;;;5090196;28;20197;-68
2021/11/11 01:13:32;;;;;;;15.20;8.70;;;2.70;99.90;;;;;;5089604;28;20461;-68
2021/11/11 01:16:00;;;;;;;14.83;8.87;;;2.70;99.90;;;;;;5082956;28;20201;-68
2021/11/11 01:18:28;;;;;;;15.13;8.50;;;2.60;99.90;;;;;;5090437;28;20208;-68
2021/11/11 01:20:55;;;;;;;17.03;8.40;;;2.70;99.90;;;;;;5087991;28;20208;-68
2021/11/11 01:23:22;;;;;;;16.03;8.90;;;2.70;99.90;;;;;;5090587;28;20206;-68
2021/11/11 01:25:49;;;;;;;16.20;8.03;;;2.60;99.90;;;;;;5090840;28;20241;-68
2021/11/11 01:28:17;;;;;;;14.23;8.13;;;2.60;99.90;;;;;;5089615;28;20194;-68
2021/11/11 01:30:46;;;;;;;14.63;8.57;;;2.70;99.90;;;;;;5073305;28;20257;-68
2021/11/11 01:33:15;;;;;;;14.53;8.23;;;2.70;99.90;;;;;;5084588;28;20206;-68
2021/11/11 01:35:43;;;;;;;14.83;8.80;;;2.80;99.90;;;;;;5084195;28;20198;-68
2021/11/11 01:38:10;;;;;;;15.33;8.30;;;2.80;99.90;;;;;;5090350;28;20254;-68
2021/11/11 01:40:38;;;;;;;16.07;9.00;;;2.70;99.90;;;;;;5090905;28;20592;-68
2021/11/11 01:43:07;;;;;;;17.13;9.10;;;2.70;99.90;;;;;;5090129;28;20279;-68
2021/11/11 01:45:36;;;;;;;15.77;9.00;;;2.60;99.90;;;;;;5090492;28;20201;-69
2021/11/11 01:48:06;;;;;;;16.60;8.53;;;2.60;99.90;;;;;;5084919;28;20203;-68
2021/11/11 01:50:35;;;;;;;15.67;7.77;;;2.60;99.90;;;;;;5090376;28;20225;-68
2021/11/11 01:53:02;;;;;;;15.00;8.83;;;2.50;99.90;;;;;;5088699;28;20205;-68
2021/11/11 01:55:30;;;;;;;13.23;7.60;;;2.50;99.90;;;;;;5090608;28;20201;-68
2021/11/11 01:57:57;;;;;;;13.67;8.07;;;2.50;99.90;;;;;;5092683;28;20202;-68
2021/11/11 02:00:28;;;;;;;14.70;8.10;;;2.40;99.90;;;;;;5089239;28;20202;-68
2021/11/11 02:02:56;;;;;;;16.40;9.30;;;2.40;99.90;;;;;;5090921;28;20202;-69
2021/11/11 02:05:25;;;;;;;12.93;7.67;;;2.30;99.90;;;;;;5075066;28;20671;-68
2021/11/11 02:07:52;;;;;;;15.50;8.93;;;2.20;99.90;;;;;;5092614;28;20193;-68
2021/11/11 02:10:20;;;;;;;13.50;8.33;;;2.30;99.90;;;;;;5094013;28;20542;-68
2021/11/11 02:12:49;;;;;;;16.20;8.53;;;2.20;99.90;;;;;;5093797;28;20219;-68
2021/11/11 02:15:19;;;;;;;15.30;7.97;;;2.20;99.90;;;;;;5083950;28;20687;-68
2021/11/11 02:17:47;;;;;;;16.23;8.53;;;2.20;99.90;;;;;;5090226;28;20259;-69
2021/11/11 02:20:18;;;;;;;17.33;8.47;;;2.10;99.90;;;;;;5092665;28;20236;-68
2021/11/11 02:22:45;;;;;;;17.03;8.27;;;2.10;99.90;;;;;;5094379;28;20251;-68
2021/11/11 02:25:15;;;;;;;16.73;8.50;;;2.20;99.90;;;;;;5084798;28;20260;-68
2021/11/11 02:27:43;;;;;;;13.60;7.83;;;2.20;99.90;;;;;;5093075;28;20205;-68
2021/11/11 02:30:13;;;;;;;13.37;7.93;;;2.20;99.90;;;;;;5092470;28;20221;-68
2021/11/11 02:32:41;;;;;;;13.90;8.13;;;2.10;99.90;;;;;;5088783;28;20244;-68
2021/11/11 02:35:11;;;;;;;25.37;8.80;;;2.10;99.90;;;;;;5084880;28;20210;-68
2021/11/11 02:37:40;;;;;;;17.57;8.03;;;2.10;99.90;;;;;;5091253;28;20636;-68
2021/11/11 02:40:10;;;;;;;14.70;8.90;;;2.10;99.90;;;;;;5093772;28;20635;-78
2021/11/11 02:42:37;;;;;;;13.63;7.63;;;2.00;99.90;;;;;;5093705;28;20602;-78
2021/11/11 02:45:07;;;;;;;15.27;8.10;;;1.90;99.90;;;;;;5079643;28;20202;-78
2021/11/11 02:47:35;;;;;;;13.67;8.00;;;1.90;99.90;;;;;;5080312;28;20241;-78
2021/11/11 02:50:02;;;;;;;13.60;7.80;;;1.90;99.90;;;;;;5092785;28;20365;-78
2021/11/11 02:52:29;;;;;;;15.27;7.63;;;1.90;99.90;;;;;;5093242;28;20234;-79
2021/11/11 02:54:58;;;;;;;14.53;7.63;;;1.90;99.90;;;;;;5082094;28;20255;-79
2021/11/11 02:57:28;;;;;;;16.03;7.90;;;2.10;99.90;;;;;;5078302;28;20622;-78
2021/11/11 02:59:58;;;;;;;15.17;8.10;;;2.00;99.90;;;;;;5093794;28;20690;-79
2021/11/11 03:02:29;;;;;;;15.67;8.57;;;2.00;99.90;;;;;;5081777;28;20260;-79
2021/11/11 03:04:58;;;;;;;16.50;8.13;;;2.10;99.90;;;;;;5092848;28;20635;-78
2021/11/11 03:07:25;;;;;;;13.17;7.87;;;2.00;99.90;;;;;;5089285;28;20208;-79
2021/11/11 03:09:53;;;;;;;15.20;8.43;;;1.90;99.90;;;;;;5093224;28;20630;-79
2021/11/11 03:12:23;;;;;;;15.50;8.40;;;2.10;99.90;;;;;;5091775;28;20244;-79
2021/11/11 03:14:51;;;;;;;18.33;8.40;;;2.20;99.90;;;;;;5089932;28;20197;-79
2021/11/11 03:17:18;;;;;;;15.20;8.67;;;2.20;99.90;;;;;;5092351;28;20547;-79
2021/11/11 03:19:47;;;;;;;16.67;8.63;;;2.20;99.90;;;;;;5092409;28;20262;-79
2021/11/11 03:22:17;;;;;;;19.87;8.80;;;2.30;99.90;;;;;;5092960;28;20208;-79
2021/11/11 03:24:44;;;;;;;14.97;8.80;;;2.40;99.90;;;;;;5084812;28;20276;-79
2021/11/11 03:27:12;;;;;;;17.63;9.67;;;2.50;99.90;;;;;;5073957;28;20206;-79
2021/11/11 03:29:40;;;;;;;14.00;7.57;;;2.70;99.90;;;;;;5076753;28;20258;-79
2021/11/11 03:32:09;;;;;;;17.87;8.80;;;2.70;99.90;;;;;;5073954;28;20331;-79
2021/11/11 03:34:37;;;;;;;15.67;8.53;;;2.70;99.90;;;;;;5081327;28;20205;-78
2021/11/11 03:37:05;;;;;;;16.60;8.50;;;2.80;99.90;;;;;;5091074;28;20254;-79
2021/11/11 03:39:32;;;;;;;16.47;8.83;;;2.90;99.90;;;;;;5091285;28;20688;-78
2021/11/11 03:41:59;;;;;;;15.30;8.63;;;2.90;99.90;;;;;;5092893;28;20239;-79
2021/11/11 03:44:28;;;;;;;18.23;9.90;;;2.90;99.90;;;;;;5091636;28;20202;-79
2021/11/11 03:46:59;;;;;;;16.40;8.70;;;2.90;99.90;;;;;;5092277;28;20267;-79
2021/11/11 03:49:26;;;;;;;17.90;9.73;;;2.90;99.90;;;;;;5090169;28;20257;-78
2021/11/11 03:51:54;;;;;;;16.37;9.77;;;2.90;99.90;;;;;;5090742;28;20198;-78
2021/11/11 03:54:24;;;;;;;19.33;9.67;;;3.00;99.90;;;;;;5077808;28;20599;-78
2021/11/11 03:56:54;;;;;;;16.33;9.30;;;3.00;99.90;;;;;;5090941;28;20297;-79
2021/11/11 03:59:21;;;;;;;18.50;9.57;;;3.00;99.90;;;;;;5091691;28;20197;-78
2021/11/11 04:01:48;;;;;;;19.03;10.00;;;3.00;99.90;;;;;;5091022;28;20198;-78
2021/11/11 04:04:17;;;;;;;16.53;8.77;;;3.00;99.90;;;;;;5086661;28;20237;-78
2021/11/11 04:06:44;;;;;;;14.77;8.83;;;3.00;99.90;;;;;;5089911;28;20737;-78
2021/11/11 04:09:11;;;;;;;14.00;8.10;;;3.00;99.90;;;;;;5085349;28;20198;-78
2021/11/11 04:11:38;;;;;;;18.33;9.47;;;2.90;99.90;;;;;;5072479;28;20275;-78
2021/11/11 04:14:07;;;;;;;17.53;9.30;;;3.00;99.90;;;;;;5090845;28;20250;-78
2021/11/11 04:16:35;;;;;;;14.50;8.60;;;3.00;99.90;;;;;;5092069;28;20206;-69
2021/11/11 04:19:02;;;;;;;16.90;9.30;;;3.00;99.90;;;;;;5088936;28;20206;-68
2021/11/11 04:21:31;;;;;;;16.33;9.23;;;3.00;99.90;;;;;;5091213;28;20198;-68
2021/11/11 04:23:58;;;;;;;15.30;9.60;;;3.10;99.90;;;;;;5090753;28;20258;-69
2021/11/11 04:26:26;;;;;;;14.93;8.83;;;3.10;99.90;;;;;;5091894;28;20259;-69
2021/11/11 04:28:57;;;;;;;18.80;9.37;;;3.10;99.90;;;;;;5088165;28;20617;-69
2021/11/11 04:31:27;;;;;;;15.87;8.80;;;3.10;99.90;;;;;;5086993;28;20224;-68
2021/11/11 04:33:57;;;;;;;17.93;8.90;;;3.10;99.90;;;;;;5080482;28;20213;-69
2021/11/11 04:36:51;;;;;;;16.63;9.50;;;3.20;99.90;;;;;;5071343;28;20217;-69
2021/11/11 04:39:36;;;;;;;16.27;8.57;;;3.20;99.90;;;;;;5070461;28;20228;-69
2021/11/11 04:42:19;;;;;;;14.93;8.50;;;3.20;99.90;;;;;;5096896;28;20204;-69
2021/11/11 04:44:58;;;;;;;15.53;9.27;;;3.30;99.90;;;;;;5111753;28;20238;-69
2021/11/11 04:47:44;;;;;;;16.80;9.37;;;3.20;99.90;;;;;;5093273;28;20295;-68
2021/11/11 04:53:09;;;;;;;15.80;8.73;;;3.30;99.90;;;;;;5068885;28;20315;-69
2021/11/11 05:01:18;;;;;;;16.90;9.20;;;3.40;99.90;;;;;;5070897;28;20705;-69
2021/11/11 05:03:46;;;;;;;17.90;9.67;;;3.50;99.90;;;;;;5071853;28;20206;-69
2021/11/11 05:06:14;;;;;;;15.87;9.07;;;3.60;99.90;;;;;;5071136;28;20659;-69
2021/11/11 05:08:41;;;;;;;14.77;8.87;;;3.60;99.90;;;;;;5069358;28;20234;-69
2021/11/11 05:11:11;;;;;;;16.93;8.83;;;3.60;99.90;;;;;;5071207;28;20221;-69
2021/11/11 05:13:38;;;;;;;16.67;9.03;;;3.70;99.90;;;;;;5076916;28;20245;-69
2021/11/11 05:16:06;;;;;;;18.57;10.00;;;3.70;99.90;;;;;;5090894;28;20200;-69
2021/11/11 05:18:33;;;;;;;15.93;8.30;;;3.70;99.90;;;;;;5089579;28;20213;-69
2021/11/11 05:21:00;;;;;;;15.27;8.23;;;3.60;99.90;;;;;;5091137;28;20205;-69
2021/11/11 05:23:27;;;;;;;15.07;8.70;;;3.70;99.90;;;;;;5090215;28;20238;-69
2021/11/11 05:25:55;;;;;;;16.30;8.67;;;3.70;99.90;;;;;;5091111;28;20202;-69
2021/11/11 05:28:23;;;;;;;17.40;9.80;;;3.70;99.90;;;;;;5089609;28;20543;-69
2021/11/11 05:30:51;;;;;;;16.43;9.60;;;3.80;99.90;;;;;;5078188;28;20218;-69
2021/11/11 05:33:17;;;;;;;15.80;9.50;;;3.80;99.90;;;;;;5074940;28;20199;-69
2021/11/11 05:35:45;;;;;;;15.97;10.63;;;3.80;99.90;;;;;;5074918;28;20680;-69
2021/11/11 05:38:11;;;;;;;15.60;9.63;;;3.80;99.90;;;;;;5072657;28;20713;-69
2021/11/11 05:40:39;;;;;;;19.43;9.90;;;3.90;99.90;;;;;;5074568;28;20551;-69
2021/11/11 05:43:06;;;;;;;16.60;9.70;;;3.90;99.90;;;;;;5074069;28;20230;-69
2021/11/11 05:45:34;;;;;;;17.27;10.60;;;4.00;99.90;;;;;;5074761;28;20644;-69
2021/11/11 05:48:02;;;;;;;20.93;10.83;;;4.00;99.90;;;;;;5073990;28;20676;-69
2021/11/11 05:50:29;;;;;;;19.20;10.53;;;4.10;99.90;;;;;;5073741;28;20224;-69
2021/11/11 05:52:56;;;;;;;19.53;10.47;;;4.10;99.90;;;;;;5083021;28;20201;-69
2021/11/11 05:55:23;;;;;;;21.00;10.33;;;4.10;99.90;;;;;;5074587;28;20252;-69
2021/11/11 05:57:50;;;;;;;19.43;10.10;;;4.20;99.90;;;;;;5072664;28;20252;-69
2021/11/11 06:00:19;;;;;;;22.07;11.70;;;4.20;99.90;;;;;;5074517;28;20252;-69
2021/11/11 06:02:48;;;;;;;19.10;10.63;;;4.20;99.90;;;;;;5074375;28;20710;-69
2021/11/11 06:05:18;;;;;;;20.83;12.50;;;4.20;99.90;;;;;;5073456;28;20669;-69
2021/11/11 06:07:45;;;;;;;17.63;10.23;;;4.10;99.90;;;;;;5072231;28;20242;-68
2021/11/11 06:10:12;;;;;;;18.57;10.30;;;4.20;99.90;;;;;;5074363;28;20260;-69
2021/11/11 06:12:39;;;;;;;17.90;9.90;;;4.20;99.90;;;;;;5073137;28;20242;-69
2021/11/11 06:15:08;;;;;;;18.20;9.83;;;4.20;99.90;;;;;;5074166;28;20209;-69
2021/11/11 06:17:36;;;;;;;20.63;10.40;;;4.20;99.90;;;;;;5073711;28;20206;-69
2021/11/11 06:20:14;;;;;;;20.90;10.90;;;4.20;99.90;;;;;;5074261;28;20207;-69
2021/11/11 06:22:42;;;;;;;18.03;10.43;;;4.20;99.90;;;;;;5073321;28;20640;-69
2021/11/11 06:25:10;;;;;;;18.60;10.37;;;4.30;99.90;;;;;;5089524;28;20206;-69
2021/11/11 06:27:38;;;;;;;18.33;9.83;;;4.30;99.90;;;;;;5092177;28;20688;-69
2021/11/11 06:30:07;;;;;;;18.40;10.33;;;4.30;99.90;;;;;;5093675;28;20237;-69
2021/11/11 06:32:34;;;;;;;20.13;10.87;;;4.30;99.90;;;;;;5093739;28;20222;-69
2021/11/11 06:35:01;;;;;;;19.87;11.60;;;4.40;99.90;;;;;;5072567;28;20652;-69
2021/11/11 06:37:29;;;;;;;20.17;10.17;;;4.30;99.90;;;;;;5072433;28;20726;-69
2021/11/11 06:39:56;;;;;;;19.83;11.10;;;4.40;99.90;;;;;;5073450;28;20221;-69
2021/11/11 06:42:23;;;;;;;18.10;10.10;;;4.40;99.90;;;;;;5072428;28;20245;-69
2021/11/11 06:44:50;;;;;;;22.07;11.67;;;4.50;99.90;;;;;;5073126;28;20203;-69
2021/11/11 06:47:17;;;;;;;18.60;10.90;;;4.50;99.90;;;;;;5072644;28;20218;-69
2021/11/11 06:49:45;;;;;;;18.50;11.40;;;4.50;99.90;;;;;;5072882;28;20210;-69
2021/11/11 06:52:12;;;;;;;21.63;11.63;;;4.60;99.90;;;;;;5072776;28;20699;-69
2021/11/11 06:54:42;;;;;;;23.83;13.53;;;4.70;99.90;;;;;;5072846;28;20203;-69
2021/11/11 06:57:09;;;;;;;23.80;11.87;;;4.70;99.90;;;;;;5072654;28;20649;-69
2021/11/11 06:59:36;;;;;;;24.63;12.57;;;4.80;99.90;;;;;;5072440;28;20206;-69
2021/11/11 07:02:04;;;;;;;20.10;11.63;;;4.90;99.90;;;;;;5073144;28;20202;-69
2021/11/11 07:04:31;;;;;;;19.53;11.43;;;4.90;99.90;;;;;;5073092;28;20237;-69
2021/11/11 07:06:58;;;;;;;20.87;12.13;;;4.90;99.90;;;;;;5071765;28;20259;-69
2021/11/11 07:09:25;;;;;;;21.07;12.33;;;4.90;99.90;;;;;;5071077;28;20217;-69
2021/11/11 07:11:53;;;;;;;23.30;12.80;;;5.00;99.90;;;;;;5072896;28;20218;-69
2021/11/11 07:14:21;;;;;;;22.70;12.60;;;5.10;99.90;;;;;;5072146;28;20676;-69
2021/11/11 07:16:48;;;;;;;22.97;13.87;;;5.10;99.90;;;;;;5072881;28;20206;-69
2021/11/11 07:19:15;;;;;;;21.10;12.07;;;5.20;99.90;;;;;;5071355;28;20272;-69
2021/11/11 07:21:42;;;;;;;20.60;12.17;;;5.20;99.90;;;;;;5072769;28;20202;-69
2021/11/11 07:24:09;;;;;;;21.23;12.67;;;5.30;99.90;;;;;;5075772;28;20205;-69
2021/11/11 07:26:37;;;;;;;23.70;13.10;;;5.30;99.90;;;;;;5092493;28;20599;-69
2021/11/11 07:29:05;;;;;;;24.50;13.40;;;5.30;99.90;;;;;;5083272;28;20202;-69
2021/11/11 07:31:32;;;;;;;25.70;13.57;;;5.30;99.90;;;;;;5072733;28;20215;-69
2021/11/11 07:33:59;;;;;;;23.40;13.07;;;5.30;99.90;;;;;;5073140;28;20275;-69
2021/11/11 07:36:27;;;;;;;27.27;14.23;;;5.30;99.90;;;;;;5070830;28;20194;-69
2021/11/11 07:38:54;;;;;;;22.00;13.00;;;5.40;99.90;;;;;;5074766;28;20210;-69
2021/11/11 07:41:21;;;;;;;23.60;13.20;;;5.40;99.90;;;;;;5092889;28;20206;-69
2021/11/11 07:43:49;;;;;;;22.60;13.13;;;5.40;99.90;;;;;;5088038;28;20274;-69
2021/11/11 07:46:18;;;;;;;25.10;13.33;;;5.40;99.90;;;;;;5072586;28;20260;-69
2021/11/11 07:48:45;;;;;;;23.43;13.27;;;5.50;99.90;;;;;;5071770;28;20683;-69
2021/11/11 07:51:12;;;;;;;25.37;13.60;;;5.50;99.90;;;;;;5072085;28;20271;-78
2021/11/11 07:53:40;;;;;;;23.23;12.80;;;5.50;99.90;;;;;;5070187;28;20237;-78
2021/11/11 07:56:07;;;;;;;22.17;12.57;;;5.50;99.90;;;;;;5072453;28;20202;-78
2021/11/11 07:58:34;;;;;;;20.53;13.10;;;5.50;99.90;;;;;;5070521;28;20596;-68
2021/11/11 08:01:01;;;;;;;25.47;13.47;;;5.50;99.90;;;;;;5072302;28;20653;-69
2021/11/11 08:03:29;;;;;;;20.47;12.87;;;5.60;99.90;;;;;;5072317;28;20206;-69
2021/11/11 08:05:56;;;;;;;21.27;13.10;;;5.60;99.90;;;;;;5072479;28;20610;-68
2021/11/11 08:08:23;;;;;;;23.23;13.30;;;5.70;99.90;;;;;;5075218;28;20251;-68
2021/11/11 08:10:50;;;;;;;23.70;12.97;;;5.60;99.90;;;;;;5091974;28;20197;-68
2021/11/11 08:13:17;;;;;;;22.33;13.37;;;5.60;99.90;;;;;;5091308;28;20659;-69
2021/11/11 08:15:44;;;;;;;24.37;14.13;;;5.60;99.90;;;;;;5092044;28;20342;-68
2021/11/11 08:18:11;;;;;;;23.23;14.00;;;5.70;99.90;;;;;;5090490;28;20660;-69
2021/11/11 08:20:40;;;;;;;20.73;12.83;;;5.80;99.90;;;;;;5092107;28;20218;-69
2021/11/11 08:23:07;;;;;;;22.93;14.50;;;5.90;99.90;;;;;;5090678;28;20202;-68
2021/11/11 08:25:34;;;;;;;23.37;13.83;;;5.90;99.90;;;;;;5091206;28;20266;-69
2021/11/11 08:28:01;;;;;;;25.50;14.80;;;5.90;99.90;;;;;;5090197;28;20201;-68
2021/11/11 08:30:29;;;;;;;22.57;13.13;;;6.00;99.90;;;;;;5090187;28;20284;-68
2021/11/11 08:32:56;;;;;;;23.17;14.07;;;6.00;99.90;;;;;;5091872;28;20260;-69
2021/11/11 08:35:25;;;;;;;22.77;13.70;;;6.00;99.90;;;;;;5091830;28;20201;-68
2021/11/11 08:37:54;;;;;;;22.70;13.57;;;6.10;99.90;;;;;;5090089;28;20637;-68
2021/11/11 08:40:22;;;;;;;23.67;14.47;;;6.20;99.90;;;;;;5091401;28;20212;-68
2021/11/11 08:42:51;;;;;;;23.60;13.20;;;6.20;99.90;;;;;;5091433;28;20246;-68
2021/11/11 08:45:19;;;;;;;23.33;13.83;;;6.30;99.90;;;;;;5090989;28;20409;-69
2021/11/11 08:47:46;;;;;;;23.70;13.33;;;6.30;99.90;;;;;;5091033;28;20205;-69
2021/11/11 08:50:14;;;;;;;25.03;14.47;;;6.40;99.90;;;;;;5091485;28;20202;-69
2021/11/11 08:52:45;;;;;;;25.07;13.70;;;6.40;99.90;;;;;;5089332;28;20612;-69
2021/11/11 08:55:14;;;;;;;23.50;14.07;;;6.50;99.90;;;;;;5091823;28;20194;-69
2021/11/11 08:57:41;;;;;;;24.97;14.20;;;6.50;99.90;;;;;;5089867;28;20255;-69
2021/11/11 09:00:14;;;;;;;24.43;13.77;;;6.60;99.90;;;;;;5091296;28;20237;-69
2021/11/11 09:02:42;;;;;;;22.13;13.33;;;6.70;99.90;;;;;;5090955;28;20667;-69
2021/11/11 09:05:09;;;;;;;23.67;13.13;;;6.70;99.90;;;;;;5091349;28;20262;-69
2021/11/11 09:07:38;;;;;;;22.37;13.00;;;6.80;99.90;;;;;;5094454;28;20213;-69
2021/11/11 09:10:07;;;;;;;24.90;13.60;;;6.80;99.90;;;;;;5093492;28;20197;-69
2021/11/11 09:12:35;;;;;;;23.37;13.20;;;6.80;99.90;;;;;;5094550;28;20221;-69
2021/11/11 09:15:03;;;;;;;22.30;13.00;;;6.80;99.90;;;;;;5095474;28;20570;-69
2021/11/11 09:17:31;;;;;;;23.57;14.63;;;6.90;99.90;;;;;;5094339;28;20223;-69
2021/11/11 09:19:59;;;;;;;22.10;13.43;;;7.00;99.90;;;;;;5094941;28;20258;-69
2021/11/11 09:22:27;;;;;;;23.07;14.23;;;7.00;99.90;;;;;;5094559;28;20202;-69
2021/11/11 09:24:54;;;;;;;22.93;13.93;;;7.10;99.90;;;;;;5094216;28;20546;-69
2021/11/11 09:27:22;;;;;;;20.10;12.43;;;7.10;99.90;;;;;;5094795;28;20197;-69
2021/11/11 09:29:50;;;;;;;20.83;12.10;;;7.20;99.90;;;;;;5094399;28;20198;-69
2021/11/11 09:32:17;;;;;;;21.13;13.23;;;7.20;99.90;;;;;;5094217;28;20708;-69
2021/11/11 09:34:45;;;;;;;18.90;12.07;;;7.30;99.90;;;;;;5095177;28;20753;-69
2021/11/11 09:37:12;;;;;;;20.90;12.43;;;7.40;99.90;;;;;;5092906;28;20198;-69
2021/11/11 09:39:39;;;;;;;21.97;11.87;;;7.50;99.90;;;;;;5094335;28;20197;-69
2021/11/11 09:42:06;;;;;;;19.77;12.60;;;7.50;99.90;;;;;;5094966;28;20197;-69
2021/11/11 09:44:33;;;;;;;20.33;11.90;;;7.60;99.90;;;;;;5094180;28;20541;-69
2021/11/11 09:47:03;;;;;;;20.43;12.33;;;7.60;99.90;;;;;;5095042;28;20209;-69
2021/11/11 09:49:30;;;;;;;22.80;12.33;;;7.70;99.90;;;;;;5093786;28;20217;-69
2021/11/11 09:51:57;;;;;;;18.73;11.33;;;7.70;99.90;;;;;;5094481;28;20225;-69
2021/11/11 09:59:55;;;;;;;20.40;11.17;;;7.80;99.90;;;;;;5072611;28;20541;-69
2021/11/11 10:02:24;;;;;;;16.23;11.00;;;7.90;99.90;;;;;;5095048;28;20201;-69
2021/11/11 10:04:51;;;;;;;16.40;10.43;;;7.90;99.90;;;;;;5094641;28;20197;-69
2021/11/11 10:07:18;;;;;;;28.13;11.10;;;8.00;99.90;;;;;;5093182;28;20626;-69
2021/11/11 10:09:46;;;;;;;18.03;10.43;;;8.00;99.90;;;;;;5093756;28;20578;-69
2021/11/11 10:12:18;;;;;;;19.13;10.97;;;8.00;99.90;;;;;;5094569;28;20243;-69
2021/11/11 10:14:47;;;;;;;19.93;10.83;;;8.10;99.90;;;;;;5093363;28;20781;-69
2021/11/11 10:17:18;;;;;;;17.20;10.43;;;8.10;99.90;;;;;;5093243;28;20206;-69
2021/11/11 10:19:49;;;;;;;17.33;10.83;;;8.10;99.90;;;;;;5092879;28;20212;-69
2021/11/11 10:22:20;;;;;;;19.80;11.33;;;8.20;99.90;;;;;;5094361;28;20243;-69
2021/11/11 10:24:52;;;;;;;18.00;9.80;;;8.10;99.90;;;;;;5093472;28;20241;-69
2021/11/11 10:27:28;;;;;;;19.23;10.77;;;8.10;99.90;;;;;;5093704;28;20679;-69
2021/11/11 10:30:02;;;;;;;18.37;10.33;;;8.20;99.90;;;;;;5093789;28;20590;-69
2021/11/11 10:32:34;;;;;;;17.73;9.90;;;8.10;99.90;;;;;;5093967;28;20261;-69
2021/11/11 10:35:05;;;;;;;16.87;10.20;;;8.10;99.90;;;;;;5093276;28;20215;-69
2021/11/11 10:37:34;;;;;;;17.47;10.23;;;8.20;99.90;;;;;;5091943;28;20312;-69
2021/11/11 10:40:07;;;;;;;19.33;11.07;;;8.20;99.90;;;;;;5093401;28;20713;-69
2021/11/11 10:42:37;;;;;;;19.53;11.60;;;8.30;99.90;;;;;;5093075;28;20198;-69
2021/11/11 10:45:08;;;;;;;17.40;9.77;;;8.30;99.90;;;;;;5093966;28;20247;-69
2021/11/11 10:47:37;;;;;;;17.57;10.50;;;8.30;99.90;;;;;;5092063;28;20212;-69
2021/11/11 10:50:10;;;;;;;17.20;11.27;;;8.30;99.90;;;;;;5093727;28;20687;-69
2021/11/11 10:52:43;;;;;;;17.83;11.00;;;8.20;99.90;;;;;;5090940;28;20225;-69
2021/11/11 10:55:19;;;;;;;18.63;10.80;;;8.40;99.90;;;;;;5087106;28;20660;-69
2021/11/11 10:57:53;;;;;;;17.33;10.27;;;8.30;99.90;;;;;;5072793;28;20267;-69
2021/11/11 11:00:28;;;;;;;16.40;9.90;;;8.40;99.90;;;;;;5072295;28;20199;-69
2021/11/11 11:03:02;;;;;;;16.80;9.50;;;8.40;99.90;;;;;;5073476;28;20255;-69
2021/11/11 11:05:35;;;;;;;14.77;8.80;;;8.50;99.90;;;;;;5073457;28;20289;-69
2021/11/11 11:08:05;;;;;;;16.50;10.13;;;8.50;99.90;;;;;;5071347;28;20202;-69
2021/11/11 11:10:34;;;;;;;15.63;10.03;;;8.60;99.90;;;;;;5073330;28;20564;-69
2021/11/11 11:13:11;;;;;;;21.07;10.33;;;8.60;99.90;;;;;;5071952;28;20338;-69
2021/11/11 11:15:51;;;;;;;15.50;9.77;;;8.70;99.90;;;;;;5073521;28;20204;-69
2021/11/11 11:18:22;;;;;;;18.40;10.37;;;8.70;99.90;;;;;;5071642;28;20727;-79
2021/11/11 11:20:56;;;;;;;16.83;9.53;;;8.80;99.90;;;;;;5073097;28;20240;-78
2021/11/11 11:23:31;;;;;;;15.60;9.50;;;8.80;99.90;;;;;;5072203;28;20297;-78
2021/11/11 11:26:02;;;;;;;15.63;9.70;;;8.80;99.90;;;;;;5086253;28;20217;-78
2021/11/11 11:28:40;;;;;;;17.73;9.70;;;8.80;99.90;;;;;;5072290;28;20259;-79
2021/11/11 11:31:08;;;;;;;18.63;11.10;;;8.80;99.90;;;;;;5073046;28;20205;-79
2021/11/11 11:33:45;;;;;;;18.97;10.70;;;8.80;99.90;;;;;;5072409;28;20222;-78
2021/11/11 11:36:18;;;;;;;18.13;10.20;;;8.90;99.90;;;;;;5072568;28;20206;-79
2021/11/11 11:38:54;;;;;;;17.00;10.10;;;8.90;99.90;;;;;;5071055;28;20627;-79
2021/11/11 11:41:33;;;;;;;15.70;10.87;;;8.90;99.90;;;;;;5088948;28;20640;-78
2021/11/11 11:44:18;;;;;;;16.70;10.53;;;8.90;99.90;;;;;;5092099;28;20209;-79
2021/11/11 11:46:58;;;;;;;17.67;10.43;;;8.80;99.90;;;;;;5092749;28;20569;-79
2021/11/11 11:49:26;;;;;;;17.57;11.00;;;8.90;99.90;;;;;;5076742;28;20213;-79
2021/11/11 11:51:55;;;;;;;16.17;9.77;;;8.90;99.90;;;;;;5071979;28;20207;-78
2021/11/11 11:54:27;;;;;;;19.13;10.73;;;8.90;99.90;;;;;;5072142;28;20210;-78
2021/11/11 11:56:58;;;;;;;15.67;9.57;;;8.90;99.90;;;;;;5072623;28;20203;-79
2021/11/11 11:59:29;;;;;;;15.80;9.77;;;9.00;99.90;;;;;;5071362;28;20242;-79
2021/11/11 12:02:13;;;;;;;19.43;9.80;;;9.10;99.90;;;;;;5072497;28;20237;-79
2021/11/11 12:07:55;;;;;;;14.10;8.83;;;9.60;99.90;;;;;;5149544;27;20602;-79
2021/11/11 12:39:47;;;;;;;17.87;11.33;;;9.50;99.90;;;;;;5107464;28;20228;-79
2021/11/11 12:42:19;;;;;;;16.37;10.17;;;9.50;99.90;;;;;;5105947;28;20296;-79
2021/11/11 12:45:10;;;;;;;16.67;10.60;;;9.50;99.90;;;;;;5108725;28;20655;-79
2021/11/11 12:47:41;;;;;;;15.77;10.33;;;9.50;99.90;;;;;;5107185;28;20233;-79
2021/11/11 12:50:35;;;;;;;14.63;10.07;;;9.50;99.90;;;;;;5109097;28;20212;-78
2021/11/11 12:53:42;;;;;;;14.70;10.30;;;9.50;99.90;;;;;;5106276;28;20200;-79
2021/11/11 12:56:36;;;;;;;17.47;11.77;;;9.50;99.90;;;;;;5109132;28;20201;-78
2021/11/11 12:59:14;;;;;;;16.27;11.90;;;9.50;99.90;;;;;;5114174;28;20254;-79
2021/11/11 13:02:05;;;;;;;14.33;9.33;;;9.60;99.90;;;;;;5129046;28;20197;-79
2021/11/11 13:04:49;;;;;;;12.43;9.07;;;9.70;99.90;;;;;;5128410;28;20661;-79
2021/11/11 13:07:32;;;;;;;12.90;9.57;;;9.60;99.90;;;;;;5126800;28;20285;-79
2021/11/11 13:10:07;;;;;;;13.93;9.77;;;9.60;99.90;;;;;;5128075;28;20245;-79
2021/11/11 13:12:35;;;;;;;15.07;10.17;;;9.60;99.90;;;;;;5129036;28;20241;-79
2021/11/11 13:15:07;;;;;;;16.93;10.27;;;9.60;99.90;;;;;;5128529;28;20261;-79
2021/11/11 13:17:48;;;;;;;16.97;11.47;;;9.60;99.90;;;;;;5120774;28;20287;-79
2021/11/11 13:20:34;;;;;;;16.10;11.33;;;9.70;99.90;;;;;;5114681;28;20301;-79
2021/11/11 13:23:17;;;;;;;16.63;11.57;;;9.70;99.90;;;;;;5113685;28;20261;-79
2021/11/11 13:54:49;;;;;;;19.77;11.83;;;9.70;99.90;;;;;;5099270;28;20204;-79
2021/11/11 16:01:08;;;;;;;21.30;12.10;;;8.90;99.90;;;;;;5094688;28;20235;-78
2021/11/11 16:03:53;;;;;;;21.07;12.57;;;8.90;99.90;;;;;;5094934;28;20300;-78
2021/11/11 16:20:12;;;;;;;23.00;12.53;;;8.80;99.90;;;;;;5093189;28;20200;-78
2021/11/11 16:22:57;;;;;;;22.90;12.83;;;8.80;99.90;;;;;;5096381;28;20626;-78
2021/11/11 16:25:42;;;;;;;21.40;13.17;;;8.80;99.90;;;;;;5092271;28;20698;-78
2021/11/11 16:28:09;;;;;;;20.17;13.57;;;8.70;99.90;;;;;;5100297;28;20202;-78